Terminal Aerodrome Forecast
Issued by NWS

Home | Current Version | Previous Version | Text Only | Print | Product List | Glossary On
Versions: 1 2 3 4 5 6 7 8 9 10 11 12 13 14
000
FTAK31 PAJN 210500
TAFAWG
TAF
PAWG 210538Z 2106/2206 10006KT P6SM VCSH BKN025 OVC035
     FM211100 VRB06KT 5SM -SHRA BCFG SCT015 OVC020
     FM211800 33006KT P6SM VCSH BKN020 OVC050
     FM220000 33006KT 5SM -SHRA BCFG OVC030
      AMD LTD TO CLD VIS AND WIND 2106/2115=

USA.gov is the U.S. government's official web portal to all federal, state and local government web resources and services.